createdAt,value
2022-08-03T00:01:36.276Z,24.20
2022-08-03T00:04:05.428Z,24.20
2022-08-03T00:06:36.983Z,24.00
2022-08-03T00:09:08.421Z,24.00
2022-08-03T00:11:36.895Z,23.90
2022-08-03T00:14:07.702Z,23.80
2022-08-03T00:16:35.210Z,23.60
2022-08-03T00:19:03.535Z,23.50
2022-08-03T00:21:30.604Z,23.40
2022-08-03T00:23:57.582Z,23.50
2022-08-03T00:26:24.468Z,23.50
2022-08-03T00:28:51.387Z,23.50
2022-08-03T00:31:22.289Z,23.60
2022-08-03T00:34:06.176Z,23.50
2022-08-03T00:36:33.952Z,23.50
2022-08-03T00:39:00.825Z,23.40
2022-08-03T00:41:28.041Z,23.30
2022-08-03T00:43:55.198Z,23.20
2022-08-03T00:46:22.599Z,23.20
2022-08-03T00:48:50.309Z,23.20
2022-08-03T00:51:19.183Z,23.10
2022-08-03T00:53:46.255Z,22.80
2022-08-03T00:56:17.782Z,22.80
2022-08-03T00:58:46.990Z,22.80
2022-08-03T01:01:16.291Z,22.80
2022-08-03T01:03:44.979Z,22.80
2022-08-03T01:06:30.872Z,22.80
2022-08-03T01:09:18.467Z,22.70
2022-08-03T01:12:01.738Z,22.70
2022-08-03T01:14:39.239Z,22.70
2022-08-03T01:17:24.380Z,22.70
2022-08-03T01:20:09.706Z,22.60
2022-08-03T01:23:15.640Z,22.60
2022-08-03T01:25:54.282Z,22.60
2022-08-03T01:28:43.211Z,22.50
2022-08-03T01:31:15.087Z,22.30
2022-08-03T01:33:47.601Z,22.30
2022-08-03T01:36:20.229Z,22.20
2022-08-03T01:38:54.169Z,22.20
2022-08-03T01:41:31.296Z,22.20
2022-08-03T01:44:28.398Z,22.20
2022-08-03T01:46:51.594Z,22.20
2022-08-03T01:49:18.836Z,22.20
2022-08-03T01:52:03.115Z,22.10
2022-08-03T01:54:40.790Z,22.10
2022-08-03T01:57:09.249Z,21.90
2022-08-03T01:59:37.995Z,21.90
2022-08-03T02:02:29.893Z,21.80
2022-08-03T02:04:56.874Z,21.80
2022-08-03T02:07:26.139Z,21.80
2022-08-03T02:09:55.064Z,21.80
2022-08-03T02:12:27.004Z,21.80
2022-08-03T02:14:56.672Z,21.70
2022-08-03T02:17:39.617Z,21.60
2022-08-03T02:20:09.615Z,21.50
2022-08-03T02:22:40.148Z,21.60
2022-08-03T02:25:10.281Z,21.50
2022-08-03T02:28:01.288Z,21.30
2022-08-03T02:30:38.690Z,21.40
2022-08-03T02:33:18.314Z,21.40
2022-08-03T02:35:47.473Z,21.30
2022-08-03T02:38:15.525Z,21.40
2022-08-03T02:40:45.289Z,21.30
2022-08-03T02:43:19.050Z,21.30
2022-08-03T02:45:49.888Z,21.40
2022-08-03T02:48:22.689Z,21.30
2022-08-03T02:50:53.290Z,21.20
2022-08-03T02:53:21.638Z,21.10
2022-08-03T02:55:50.353Z,21.20
2022-08-03T02:58:21.393Z,21.10
2022-08-03T03:00:49.486Z,20.90
2022-08-03T03:03:16.718Z,20.90
2022-08-03T03:05:56.041Z,20.80
2022-08-03T03:08:28.165Z,20.70
2022-08-03T03:11:01.705Z,20.80
2022-08-03T03:13:33.048Z,20.80
2022-08-03T03:16:05.166Z,20.70
2022-08-03T03:18:34.226Z,20.70
2022-08-03T03:21:05.617Z,20.60
2022-08-03T03:23:36.252Z,20.70
2022-08-03T03:26:04.358Z,20.60
2022-08-03T03:28:32.600Z,20.50
2022-08-03T03:31:00.800Z,20.40
2022-08-03T03:33:28.607Z,20.30
2022-08-03T03:35:56.500Z,20.40
2022-08-03T03:38:23.618Z,20.40
2022-08-03T03:40:50.677Z,20.30
2022-08-03T03:43:18.793Z,20.40
2022-08-03T03:45:47.683Z,20.30
2022-08-03T03:48:15.232Z,20.20
2022-08-03T03:50:44.319Z,20.20
2022-08-03T03:53:12.927Z,20.20
2022-08-03T03:55:59.086Z,20.10
2022-08-03T03:58:28.726Z,20.20
2022-08-03T04:00:56.024Z,20.20
2022-08-03T04:03:23.316Z,20.00
2022-08-03T04:06:09.196Z,20.00
2022-08-03T04:08:54.459Z,20.00
2022-08-03T04:11:38.978Z,20.00
2022-08-03T04:14:31.866Z,20.00
2022-08-03T04:17:03.969Z,19.90
2022-08-03T04:19:51.439Z,19.80
2022-08-03T04:22:24.581Z,19.90
2022-08-03T04:25:00.483Z,19.90
2022-08-03T04:27:34.462Z,19.90
2022-08-03T04:30:06.020Z,19.90
2022-08-03T04:32:36.003Z,19.80
2022-08-03T04:35:03.689Z,19.80
2022-08-03T04:37:39.645Z,19.80
2022-08-03T04:40:11.069Z,19.80
2022-08-03T04:42:39.714Z,19.80
2022-08-03T04:45:08.671Z,19.70
2022-08-03T04:47:36.675Z,19.70
2022-08-03T04:50:10.410Z,19.70
2022-08-03T04:52:39.898Z,19.60
2022-08-03T04:55:07.408Z,19.60
2022-08-03T04:57:34.356Z,19.60
2022-08-03T05:00:03.581Z,19.50
2022-08-03T05:02:32.281Z,19.60
2022-08-03T05:05:00.071Z,19.60
2022-08-03T05:07:35.737Z,19.60
2022-08-03T05:10:15.000Z,19.60
2022-08-03T05:12:48.107Z,19.70
2022-08-03T05:15:16.115Z,19.60
2022-08-03T05:17:43.220Z,19.70
2022-08-03T05:20:11.617Z,19.70
2022-08-03T05:22:38.538Z,19.80
2022-08-03T05:25:06.788Z,19.80
2022-08-03T05:27:33.954Z,19.80
2022-08-03T05:30:29.856Z,19.90
2022-08-03T05:32:47.981Z,19.90
2022-08-03T05:35:55.699Z,19.90
2022-08-03T05:38:04.425Z,19.90
2022-08-03T05:40:33.073Z,19.90
2022-08-03T05:43:01.053Z,19.90
2022-08-03T05:45:28.830Z,19.80
2022-08-03T05:47:56.651Z,19.90
2022-08-03T05:50:24.303Z,19.90
2022-08-03T05:52:52.099Z,19.90
2022-08-03T05:55:19.218Z,19.90
2022-08-03T05:57:47.784Z,20.00
2022-08-03T06:00:17.305Z,20.00
2022-08-03T06:02:44.640Z,20.00
2022-08-03T06:05:13.335Z,20.10
2022-08-03T06:07:40.580Z,20.10
2022-08-03T06:10:35.738Z,20.10
2022-08-03T06:12:56.720Z,20.20
2022-08-03T06:15:24.874Z,20.20
2022-08-03T06:17:53.531Z,20.20
2022-08-03T06:20:21.365Z,20.30
2022-08-03T06:23:00.424Z,20.30
2022-08-03T06:25:28.873Z,20.40
2022-08-03T06:27:55.784Z,20.40
2022-08-03T06:30:22.895Z,20.40
2022-08-03T06:32:52.136Z,20.50
2022-08-03T06:35:20.098Z,20.50
2022-08-03T06:37:50.482Z,20.60
2022-08-03T06:40:32.670Z,20.70
2022-08-03T06:43:02.479Z,20.70
2022-08-03T06:45:31.692Z,20.70
2022-08-03T06:48:07.672Z,20.70
2022-08-03T06:50:36.892Z,20.80
2022-08-03T06:53:05.429Z,20.90
2022-08-03T06:55:33.034Z,20.90
2022-08-03T06:58:03.145Z,21.00
2022-08-03T07:00:31.085Z,21.00
2022-08-03T07:02:58.592Z,21.10
2022-08-03T07:05:25.866Z,21.10
2022-08-03T07:07:58.465Z,21.20
2022-08-03T07:10:25.891Z,21.20
2022-08-03T07:12:56.378Z,21.20
2022-08-03T07:15:54.413Z,21.20
2022-08-03T07:18:16.394Z,21.30
2022-08-03T07:20:43.499Z,21.30
2022-08-03T07:23:10.487Z,21.40
2022-08-03T07:25:46.079Z,21.40
2022-08-03T07:28:13.157Z,21.50
2022-08-03T07:30:40.114Z,21.50
2022-08-03T07:33:07.374Z,21.60
2022-08-03T07:35:35.207Z,21.70
2022-08-03T07:38:02.155Z,21.70
2022-08-03T07:40:31.640Z,21.70
2022-08-03T07:43:00.050Z,21.80
2022-08-03T07:45:27.349Z,21.90
2022-08-03T07:47:54.775Z,21.90
2022-08-03T07:50:22.661Z,22.00
2022-08-03T07:52:52.043Z,22.00
2022-08-03T07:55:25.755Z,22.10
2022-08-03T07:58:12.639Z,22.10
2022-08-03T08:00:39.909Z,22.20
2022-08-03T08:03:06.901Z,22.30
2022-08-03T08:05:34.474Z,22.30
2022-08-03T08:08:03.594Z,22.40
2022-08-03T08:10:32.975Z,22.40
2022-08-03T08:13:00.148Z,22.40
2022-08-03T08:15:27.573Z,22.40
2022-08-03T08:17:57.340Z,22.60
2022-08-03T08:20:31.696Z,22.80
2022-08-03T08:23:02.797Z,22.90
2022-08-03T08:25:32.490Z,23.10
2022-08-03T08:28:31.373Z,23.20
2022-08-03T08:30:50.601Z,23.40
2022-08-03T08:33:23.525Z,23.60
2022-08-03T08:35:53.289Z,23.80
2022-08-03T08:38:20.610Z,24.00
2022-08-03T08:40:50.647Z,24.20
2022-08-03T08:43:17.675Z,24.40
2022-08-03T08:45:46.399Z,24.70
2022-08-03T08:48:14.912Z,25.00
2022-08-03T08:50:42.426Z,25.10
2022-08-03T08:53:17.533Z,25.40
2022-08-03T08:55:58.611Z,25.50
2022-08-03T08:58:31.679Z,25.60
2022-08-03T09:00:59.171Z,25.60
2022-08-03T09:03:29.697Z,25.60
2022-08-03T09:06:02.852Z,25.80
2022-08-03T09:08:32.009Z,26.00
2022-08-03T09:11:02.596Z,26.10
2022-08-03T09:13:31.389Z,26.20
2022-08-03T09:16:16.946Z,26.30
2022-08-03T09:18:54.789Z,26.30
2022-08-03T09:21:33.341Z,26.30
2022-08-03T09:24:05.286Z,26.40
2022-08-03T09:26:36.774Z,26.50
2022-08-03T09:29:14.868Z,26.60
2022-08-03T09:31:46.004Z,26.70
2022-08-03T09:34:16.158Z,26.70
2022-08-03T09:36:45.910Z,26.80
2022-08-03T09:39:19.695Z,26.90
2022-08-03T09:42:23.794Z,27.00
2022-08-03T09:44:52.256Z,27.00
2022-08-03T09:47:36.779Z,27.10
2022-08-03T09:50:12.973Z,27.10
2022-08-03T09:52:49.187Z,27.20
2022-08-03T09:56:33.540Z,27.30
2022-08-03T09:58:11.387Z,27.40
2022-08-03T10:01:04.102Z,27.50
2022-08-03T10:04:03.182Z,27.60
2022-08-03T10:06:29.120Z,27.60
2022-08-03T10:09:21.465Z,27.60
2022-08-03T10:11:51.615Z,27.70
2022-08-03T10:14:22.524Z,27.60
2022-08-03T10:16:50.170Z,27.70
2022-08-03T10:19:17.602Z,27.60
2022-08-03T10:21:55.898Z,27.70
2022-08-03T10:24:30.649Z,27.80
2022-08-03T10:27:07.334Z,27.90
2022-08-03T10:29:39.962Z,27.90
2022-08-03T10:32:22.892Z,28.00
2022-08-03T10:35:00.207Z,28.10
2022-08-03T10:37:58.762Z,28.20
2022-08-03T10:43:42.797Z,28.20
2022-08-03T10:46:10.608Z,28.30
2022-08-03T10:48:39.500Z,28.30
2022-08-03T10:51:07.847Z,28.40
2022-08-03T10:53:54.490Z,28.40
2022-08-03T10:56:54.342Z,28.50
2022-08-03T10:59:47.018Z,28.50
2022-08-03T11:02:15.147Z,28.70
2022-08-03T11:04:42.956Z,28.70
2022-08-03T11:07:23.050Z,28.80
2022-08-03T11:09:55.910Z,28.90
2022-08-03T11:12:32.649Z,28.90
2022-08-03T11:15:07.293Z,29.00
2022-08-03T11:17:46.679Z,29.20
2022-08-03T11:20:53.157Z,29.30
2022-08-03T11:24:04.172Z,29.40
2022-08-03T11:26:33.403Z,29.50
2022-08-03T11:29:32.215Z,29.60
2022-08-03T11:31:59.369Z,29.60
2022-08-03T11:34:27.425Z,29.80
2022-08-03T11:37:22.322Z,29.90
2022-08-03T11:39:53.101Z,30.10
2022-08-03T11:42:23.293Z,30.20
2022-08-03T11:45:00.864Z,30.30
2022-08-03T11:47:29.742Z,30.30
2022-08-03T11:50:02.385Z,30.30
2022-08-03T11:52:40.020Z,30.40
2022-08-03T11:55:16.619Z,30.50
2022-08-03T11:59:02.706Z,30.70
2022-08-03T12:00:33.728Z,30.80
2022-08-03T12:03:11.886Z,31.00
2022-08-03T12:05:54.798Z,30.90
2022-08-03T12:08:27.909Z,31.10
2022-08-03T12:10:57.349Z,31.20
2022-08-03T12:14:44.423Z,31.30
2022-08-03T12:16:20.189Z,31.50
2022-08-03T12:18:59.449Z,31.70
2022-08-03T12:21:27.279Z,31.80
2022-08-03T12:24:03.601Z,31.80
2022-08-03T12:26:58.602Z,32.00
2022-08-03T12:29:26.960Z,32.20
2022-08-03T12:31:54.012Z,32.20
2022-08-03T12:34:21.347Z,32.50
2022-08-03T12:36:56.540Z,32.60
2022-08-03T12:39:26.389Z,32.80
2022-08-03T12:41:56.020Z,32.90
2022-08-03T12:44:36.468Z,32.90
2022-08-03T12:47:06.985Z,33.00
2022-08-03T12:49:54.009Z,33.10
2022-08-03T12:52:23.006Z,33.20
2022-08-03T12:55:00.881Z,33.40
2022-08-03T12:57:49.991Z,33.30
2022-08-03T13:00:28.807Z,33.40
2022-08-03T13:05:55.122Z,33.70
2022-08-03T13:08:25.615Z,33.70
2022-08-03T13:10:53.071Z,33.70
2022-08-03T13:13:39.271Z,33.90
2022-08-03T13:16:06.201Z,34.00
2022-08-03T13:18:33.351Z,34.10
2022-08-03T13:21:01.019Z,33.80
2022-08-03T13:23:30.057Z,34.00
2022-08-03T13:25:56.977Z,34.20
2022-08-03T13:28:25.119Z,34.50
2022-08-03T13:30:54.491Z,34.80
2022-08-03T13:33:21.413Z,35.00
2022-08-03T13:35:48.301Z,35.10
2022-08-03T13:38:15.461Z,35.10
2022-08-03T13:40:44.601Z,35.20
2022-08-03T13:43:14.534Z,35.10
2022-08-03T13:45:44.497Z,35.20
2022-08-03T13:48:14.486Z,35.20
2022-08-03T13:51:05.312Z,35.50
2022-08-03T13:53:38.996Z,35.50
2022-08-03T13:56:05.957Z,35.80
2022-08-03T13:58:32.853Z,36.00
2022-08-03T14:00:59.757Z,35.90
2022-08-03T14:03:26.639Z,36.00
2022-08-03T14:05:53.531Z,36.10
2022-08-03T14:08:20.491Z,36.40
2022-08-03T14:10:47.490Z,36.60
2022-08-03T14:13:17.401Z,36.70
2022-08-03T14:15:49.982Z,36.90
2022-08-03T14:18:28.477Z,37.00
2022-08-03T14:21:07.329Z,37.00
2022-08-03T14:23:37.558Z,36.80
2022-08-03T14:26:06.635Z,36.70
2022-08-03T14:28:33.878Z,36.80
2022-08-03T14:31:02.205Z,36.90
2022-08-03T14:33:29.242Z,37.10
2022-08-03T14:35:56.412Z,37.20
2022-08-03T14:38:23.413Z,37.00
2022-08-03T14:40:51.025Z,36.90
2022-08-03T14:43:18.216Z,36.80
2022-08-03T14:45:45.429Z,36.60
2022-08-03T14:50:32.160Z,36.90
2022-08-03T14:50:59.766Z,37.10
2022-08-03T14:53:26.694Z,37.30
2022-08-03T14:55:53.686Z,37.40
2022-08-03T14:58:26.172Z,37.60
2022-08-03T15:00:54.996Z,37.70
2022-08-03T15:03:24.789Z,37.80
2022-08-03T15:05:54.416Z,37.80
2022-08-03T15:08:22.934Z,37.90
2022-08-03T15:10:50.857Z,37.80
2022-08-03T15:13:19.804Z,37.90
2022-08-03T15:15:49.658Z,38.00
2022-08-03T15:18:16.738Z,37.80
2022-08-03T15:20:45.911Z,37.80
2022-08-03T15:23:15.171Z,37.80
2022-08-03T15:26:29.034Z,37.50
2022-08-03T15:28:33.277Z,37.60
2022-08-03T15:31:01.344Z,37.70
2022-08-03T15:33:29.377Z,37.80
2022-08-03T15:35:57.206Z,37.60
2022-08-03T15:38:26.129Z,38.20
2022-08-03T15:40:54.705Z,38.40
2022-08-03T15:43:23.372Z,38.60
2022-08-03T15:46:06.843Z,38.40
2022-08-03T15:48:37.908Z,38.40
2022-08-03T15:51:05.583Z,38.30
2022-08-03T15:53:33.593Z,38.10
2022-08-03T15:56:05.181Z,38.30
2022-08-03T15:59:04.118Z,38.10
2022-08-03T16:01:22.133Z,37.80
2022-08-03T16:03:49.086Z,38.20
2022-08-03T16:06:16.086Z,38.40
2022-08-03T16:08:43.852Z,38.30
2022-08-03T16:11:11.479Z,38.50
2022-08-03T16:14:13.153Z,38.70
2022-08-03T16:16:26.044Z,38.80
2022-08-03T16:18:53.157Z,39.20
2022-08-03T16:21:21.787Z,39.40
2022-08-03T16:23:51.504Z,39.50
2022-08-03T16:26:18.408Z,39.50
2022-08-03T16:28:45.226Z,39.30
2022-08-03T16:31:12.093Z,39.20
2022-08-03T16:33:40.162Z,39.40
2022-08-03T16:36:07.198Z,39.70
2022-08-03T16:38:34.076Z,39.90
2022-08-03T16:41:00.964Z,40.10
2022-08-03T16:43:28.376Z,40.30
2022-08-03T16:45:55.280Z,40.40
2022-08-03T16:48:22.372Z,39.90
2022-08-03T16:50:49.393Z,39.80
2022-08-03T16:53:17.255Z,40.10
2022-08-03T16:56:00.725Z,40.50
2022-08-03T16:58:41.601Z,40.20
2022-08-03T17:01:22.265Z,40.00
2022-08-03T17:04:02.197Z,40.40
2022-08-03T17:06:37.391Z,40.00
2022-08-03T17:09:08.506Z,39.80
2022-08-03T17:11:44.169Z,39.90
2022-08-03T17:14:29.291Z,39.70
2022-08-03T17:17:01.644Z,39.70
2022-08-03T17:19:31.168Z,39.30
2022-08-03T17:22:07.521Z,39.40
2022-08-03T17:24:42.275Z,39.10
2022-08-03T17:28:42.324Z,39.00
2022-08-03T17:30:13.314Z,39.00
2022-08-03T17:32:53.470Z,39.00
2022-08-03T17:35:34.413Z,38.80
2022-08-03T17:38:05.729Z,38.50
2022-08-03T17:40:34.889Z,38.60
2022-08-03T17:44:13.678Z,38.80
2022-08-03T17:45:54.956Z,38.40
2022-08-03T17:48:25.086Z,38.30
2022-08-03T17:51:00.289Z,38.20
2022-08-03T17:53:33.512Z,38.10
2022-08-03T17:56:45.171Z,37.90
2022-08-03T18:03:13.183Z,37.60
2022-08-03T18:06:10.692Z,37.30
2022-08-03T18:08:55.149Z,37.30
2022-08-03T18:14:25.493Z,37.80
2022-08-03T18:17:00.272Z,37.80
2022-08-03T18:20:01.087Z,37.40
2022-08-03T18:22:20.506Z,37.20
2022-08-03T18:24:50.099Z,37.00
2022-08-03T18:27:19.538Z,37.30
2022-08-03T18:29:47.547Z,36.70
2022-08-03T18:32:25.364Z,36.70
2022-08-03T18:34:56.419Z,36.60
2022-08-03T18:37:25.837Z,36.90
2022-08-03T18:39:57.952Z,36.90
2022-08-03T18:42:26.295Z,36.70
2022-08-03T18:44:56.343Z,36.40
2022-08-03T18:47:50.601Z,36.20
2022-08-03T18:50:49.677Z,36.10
2022-08-03T18:54:02.512Z,36.40
2022-08-03T18:56:44.947Z,36.30
2022-08-03T18:59:31.457Z,36.10
2022-08-03T19:02:31.567Z,35.80
2022-08-03T19:05:08.112Z,35.80
2022-08-03T19:07:37.791Z,35.90
2022-08-03T19:10:10.240Z,36.10
2022-08-03T19:12:56.129Z,36.00
2022-08-03T19:15:36.416Z,35.70
2022-08-03T19:18:21.943Z,35.70
2022-08-03T19:20:54.767Z,35.30
2022-08-03T19:23:25.491Z,35.50
2022-08-03T19:25:53.682Z,35.50
2022-08-03T19:28:29.614Z,35.30
2022-08-03T19:31:02.548Z,35.00
2022-08-03T19:33:55.937Z,34.70
2022-08-03T19:36:28.301Z,35.00
2022-08-03T19:38:57.350Z,35.10
2022-08-03T19:41:42.187Z,34.80
2022-08-03T19:44:19.948Z,34.80
2022-08-03T19:46:53.631Z,34.70
2022-08-03T19:49:57.104Z,34.70
2022-08-03T19:52:16.784Z,34.70
2022-08-03T19:54:54.140Z,34.50
2022-08-03T19:57:27.334Z,34.40
2022-08-03T19:59:56.327Z,34.40
2022-08-03T20:02:26.400Z,34.30
2022-08-03T20:04:59.749Z,34.20
2022-08-03T20:07:32.016Z,34.20
2022-08-03T20:10:01.928Z,34.30
2022-08-03T20:12:32.153Z,34.10
2022-08-03T20:15:04.921Z,33.90
2022-08-03T20:17:56.546Z,33.70
2022-08-03T20:20:26.060Z,33.70
2022-08-03T20:22:57.650Z,33.70
2022-08-03T20:25:38.187Z,33.50
2022-08-03T20:28:49.738Z,33.40
2022-08-03T20:31:32.076Z,33.30
2022-08-03T20:34:01.083Z,33.10
2022-08-03T20:36:28.130Z,33.10
2022-08-03T20:38:57.708Z,33.10
2022-08-03T20:41:25.453Z,33.10
2022-08-03T20:43:52.432Z,33.10
2022-08-03T20:46:29.397Z,32.80
2022-08-03T20:49:04.146Z,32.70
2022-08-03T20:51:49.744Z,32.60
2022-08-03T20:54:29.856Z,32.40
2022-08-03T20:57:04.489Z,32.30
2022-08-03T20:59:50.179Z,32.20
2022-08-03T21:02:30.095Z,32.00
2022-08-03T21:05:03.749Z,31.90
2022-08-03T21:07:45.539Z,31.70
2022-08-03T21:10:16.683Z,31.60
2022-08-03T21:12:56.082Z,37.90
2022-08-03T21:13:04.018Z,37.60
2022-08-03T21:13:15.378Z,31.70
2022-08-03T21:16:02.666Z,31.80
2022-08-03T21:18:53.650Z,31.70
2022-08-03T21:21:23.750Z,31.50
2022-08-03T21:23:53.986Z,31.30
2022-08-03T21:26:24.082Z,31.20
2022-08-03T21:28:54.942Z,31.20
2022-08-03T21:31:25.402Z,31.20
2022-08-03T21:34:05.015Z,31.20
2022-08-03T21:36:35.580Z,31.20
2022-08-03T21:39:06.149Z,31.20
2022-08-03T21:41:33.570Z,31.10
2022-08-03T21:44:02.287Z,31.10
2022-08-03T21:46:37.616Z,31.00
2022-08-03T21:50:06.894Z,30.90
2022-08-03T21:51:59.729Z,30.80
2022-08-03T21:54:39.419Z,30.70
2022-08-03T21:57:20.240Z,30.60
2022-08-03T21:59:55.317Z,30.20
2022-08-03T22:02:30.053Z,30.20
2022-08-03T22:04:58.621Z,30.10
2022-08-03T22:07:27.754Z,29.90
2022-08-03T22:10:00.726Z,29.70
2022-08-03T22:12:30.826Z,29.60
2022-08-03T22:15:01.973Z,29.60
2022-08-03T22:17:55.126Z,29.60
2022-08-03T22:20:20.369Z,29.60
2022-08-03T22:22:53.608Z,29.40
2022-08-03T22:25:29.425Z,29.40
2022-08-03T22:28:08.780Z,29.30
2022-08-03T22:30:36.921Z,29.30
2022-08-03T22:33:10.887Z,29.30
2022-08-03T22:35:47.849Z,29.30
2022-08-03T22:38:17.296Z,29.30
2022-08-03T22:40:45.271Z,29.20
2022-08-03T22:43:12.342Z,29.20
2022-08-03T22:46:07.301Z,29.20
2022-08-03T22:48:32.441Z,29.00
2022-08-03T22:51:02.641Z,28.80
2022-08-03T22:53:30.489Z,28.60
2022-08-03T22:55:58.250Z,28.40
2022-08-03T22:58:25.653Z,28.40
2022-08-03T23:01:08.782Z,28.50
2022-08-03T23:04:00.537Z,28.40
2022-08-03T23:06:35.327Z,28.30
2022-08-03T23:09:13.693Z,28.20
2022-08-03T23:11:45.686Z,28.10
2022-08-03T23:14:16.200Z,28.10
2022-08-03T23:16:45.722Z,27.90
2022-08-03T23:19:17.240Z,27.90
2022-08-03T23:22:02.469Z,27.90
2022-08-03T23:24:34.742Z,27.80
2022-08-03T23:27:04.771Z,27.70
2022-08-03T23:29:36.839Z,27.80
2022-08-03T23:32:05.717Z,27.60
2022-08-03T23:34:52.933Z,27.50
2022-08-03T23:37:20.619Z,27.40
2022-08-03T23:39:49.136Z,27.10
2022-08-03T23:42:19.044Z,27.10
2022-08-03T23:44:46.497Z,27.20
2022-08-03T23:47:14.113Z,27.10
2022-08-03T23:49:41.095Z,27.10
2022-08-03T23:52:46.973Z,27.10
2022-08-03T23:55:36.770Z,27.00
2022-08-03T23:58:14.664Z,26.90
